sensor_id;sensor_type;location;lat;lon;timestamp;P1;durP1;ratioP1;P2;durP2;ratioP2
19207;SDS011;9737;59.466;18.036;2024-03-08T00:00:13;13.52;;;5.20;;
19207;SDS011;9737;59.466;18.036;2024-03-08T00:02:48;10.25;;;5.90;;
19207;SDS011;9737;59.466;18.036;2024-03-08T00:05:17;9.20;;;5.78;;
19207;SDS011;9737;59.466;18.036;2024-03-08T00:07:45;13.50;;;5.80;;
19207;SDS011;9737;59.466;18.036;2024-03-08T00:10:14;12.10;;;5.90;;
19207;SDS011;9737;59.466;18.036;2024-03-08T00:12:43;11.95;;;5.40;;
19207;SDS011;9737;59.466;18.036;2024-03-08T00:15:13;9.63;;;5.53;;
19207;SDS011;9737;59.466;18.036;2024-03-08T00:17:45;9.93;;;5.90;;
19207;SDS011;9737;59.466;18.036;2024-03-08T00:20:15;8.65;;;5.50;;
19207;SDS011;9737;59.466;18.036;2024-03-08T00:22:45;8.45;;;5.82;;
19207;SDS011;9737;59.466;18.036;2024-03-08T00:25:14;10.25;;;5.65;;
19207;SDS011;9737;59.466;18.036;2024-03-08T00:27:42;13.45;;;5.88;;
19207;SDS011;9737;59.466;18.036;2024-03-08T00:30:11;8.77;;;5.28;;
19207;SDS011;9737;59.466;18.036;2024-03-08T00:32:41;9.20;;;5.82;;
19207;SDS011;9737;59.466;18.036;2024-03-08T00:35:09;7.88;;;5.22;;
19207;SDS011;9737;59.466;18.036;2024-03-08T00:37:40;9.93;;;5.40;;
19207;SDS011;9737;59.466;18.036;2024-03-08T00:40:09;9.60;;;5.63;;
19207;SDS011;9737;59.466;18.036;2024-03-08T00:42:38;9.07;;;6.10;;
19207;SDS011;9737;59.466;18.036;2024-03-08T00:45:06;7.95;;;5.32;;
19207;SDS011;9737;59.466;18.036;2024-03-08T00:47:37;10.55;;;5.70;;
19207;SDS011;9737;59.466;18.036;2024-03-08T00:50:05;23.35;;;5.93;;
19207;SDS011;9737;59.466;18.036;2024-03-08T00:52:35;11.25;;;5.43;;
19207;SDS011;9737;59.466;18.036;2024-03-08T00:55:04;10.15;;;5.50;;
19207;SDS011;9737;59.466;18.036;2024-03-08T00:57:35;15.48;;;5.65;;
19207;SDS011;9737;59.466;18.036;2024-03-08T01:00:03;14.23;;;5.28;;
19207;SDS011;9737;59.466;18.036;2024-03-08T01:02:35;9.13;;;5.22;;
19207;SDS011;9737;59.466;18.036;2024-03-08T01:05:04;11.63;;;5.60;;
19207;SDS011;9737;59.466;18.036;2024-03-08T01:07:34;9.73;;;5.20;;
19207;SDS011;9737;59.466;18.036;2024-03-08T01:10:02;9.75;;;5.95;;
19207;SDS011;9737;59.466;18.036;2024-03-08T01:12:32;11.98;;;5.95;;
19207;SDS011;9737;59.466;18.036;2024-03-08T01:15:01;10.98;;;5.43;;
19207;SDS011;9737;59.466;18.036;2024-03-08T01:17:29;8.82;;;5.70;;
19207;SDS011;9737;59.466;18.036;2024-03-08T01:19:58;8.57;;;5.30;;
19207;SDS011;9737;59.466;18.036;2024-03-08T01:22:26;7.93;;;5.28;;
19207;SDS011;9737;59.466;18.036;2024-03-08T01:24:54;10.40;;;5.60;;
19207;SDS011;9737;59.466;18.036;2024-03-08T01:27:22;9.75;;;5.80;;
19207;SDS011;9737;59.466;18.036;2024-03-08T01:29:53;11.55;;;5.88;;
19207;SDS011;9737;59.466;18.036;2024-03-08T01:32:22;8.82;;;5.38;;
19207;SDS011;9737;59.466;18.036;2024-03-08T01:34:51;9.52;;;5.32;;
19207;SDS011;9737;59.466;18.036;2024-03-08T01:37:19;9.82;;;5.72;;
19207;SDS011;9737;59.466;18.036;2024-03-08T01:39:47;10.82;;;5.80;;
19207;SDS011;9737;59.466;18.036;2024-03-08T01:42:15;10.45;;;5.55;;
19207;SDS011;9737;59.466;18.036;2024-03-08T01:44:44;10.10;;;6.07;;
19207;SDS011;9737;59.466;18.036;2024-03-08T01:47:14;12.25;;;5.88;;
19207;SDS011;9737;59.466;18.036;2024-03-08T01:49:42;11.88;;;6.43;;
19207;SDS011;9737;59.466;18.036;2024-03-08T01:52:11;13.10;;;6.00;;
19207;SDS011;9737;59.466;18.036;2024-03-08T01:54:39;9.80;;;5.93;;
19207;SDS011;9737;59.466;18.036;2024-03-08T01:57:08;9.13;;;5.90;;
19207;SDS011;9737;59.466;18.036;2024-03-08T01:59:36;8.32;;;5.38;;
19207;SDS011;9737;59.466;18.036;2024-03-08T02:02:05;16.75;;;6.30;;
19207;SDS011;9737;59.466;18.036;2024-03-08T02:04:36;12.55;;;6.47;;
19207;SDS011;9737;59.466;18.036;2024-03-08T02:07:05;12.20;;;6.50;;
19207;SDS011;9737;59.466;18.036;2024-03-08T02:09:36;11.25;;;6.20;;
19207;SDS011;9737;59.466;18.036;2024-03-08T02:12:05;11.88;;;6.63;;
19207;SDS011;9737;59.466;18.036;2024-03-08T02:14:35;10.95;;;6.20;;
19207;SDS011;9737;59.466;18.036;2024-03-08T02:17:04;13.82;;;6.50;;
19207;SDS011;9737;59.466;18.036;2024-03-08T02:19:31;12.55;;;5.80;;
19207;SDS011;9737;59.466;18.036;2024-03-08T02:22:03;14.00;;;6.70;;
19207;SDS011;9737;59.466;18.036;2024-03-08T02:24:31;14.00;;;6.55;;
19207;SDS011;9737;59.466;18.036;2024-03-08T02:27:00;12.82;;;5.80;;
19207;SDS011;9737;59.466;18.036;2024-03-08T02:29:28;14.52;;;6.13;;
19207;SDS011;9737;59.466;18.036;2024-03-08T02:31:56;16.20;;;6.38;;
19207;SDS011;9737;59.466;18.036;2024-03-08T02:34:24;10.35;;;5.63;;
19207;SDS011;9737;59.466;18.036;2024-03-08T02:36:52;11.57;;;6.18;;
19207;SDS011;9737;59.466;18.036;2024-03-08T02:39:21;12.27;;;5.70;;
19207;SDS011;9737;59.466;18.036;2024-03-08T02:41:49;12.25;;;6.30;;
19207;SDS011;9737;59.466;18.036;2024-03-08T02:44:17;10.15;;;5.97;;
19207;SDS011;9737;59.466;18.036;2024-03-08T02:46:48;12.63;;;6.10;;
19207;SDS011;9737;59.466;18.036;2024-03-08T02:49:17;11.43;;;6.20;;
19207;SDS011;9737;59.466;18.036;2024-03-08T02:51:45;33.72;;;6.70;;
19207;SDS011;9737;59.466;18.036;2024-03-08T02:54:13;21.52;;;6.47;;
19207;SDS011;9737;59.466;18.036;2024-03-08T02:56:42;23.35;;;6.20;;
19207;SDS011;9737;59.466;18.036;2024-03-08T02:59:10;16.42;;;5.88;;
19207;SDS011;9737;59.466;18.036;2024-03-08T03:01:39;15.63;;;6.30;;
19207;SDS011;9737;59.466;18.036;2024-03-08T03:04:07;13.43;;;6.10;;
19207;SDS011;9737;59.466;18.036;2024-03-08T03:06:35;29.35;;;6.38;;
19207;SDS011;9737;59.466;18.036;2024-03-08T03:09:03;24.80;;;6.47;;
19207;SDS011;9737;59.466;18.036;2024-03-08T03:11:33;37.25;;;7.38;;
19207;SDS011;9737;59.466;18.036;2024-03-08T03:14:02;23.60;;;6.85;;
19207;SDS011;9737;59.466;18.036;2024-03-08T03:16:30;13.52;;;6.28;;
19207;SDS011;9737;59.466;18.036;2024-03-08T03:18:58;21.05;;;6.13;;
19207;SDS011;9737;59.466;18.036;2024-03-08T03:21:28;18.13;;;6.40;;
19207;SDS011;9737;59.466;18.036;2024-03-08T03:23:58;11.07;;;6.20;;
19207;SDS011;9737;59.466;18.036;2024-03-08T03:26:26;10.38;;;6.32;;
19207;SDS011;9737;59.466;18.036;2024-03-08T03:28:54;21.90;;;6.45;;
19207;SDS011;9737;59.466;18.036;2024-03-08T03:31:25;17.92;;;5.95;;
19207;SDS011;9737;59.466;18.036;2024-03-08T03:33:52;11.55;;;6.60;;
19207;SDS011;9737;59.466;18.036;2024-03-08T03:36:20;13.82;;;6.47;;
19207;SDS011;9737;59.466;18.036;2024-03-08T03:38:48;13.88;;;6.18;;
19207;SDS011;9737;59.466;18.036;2024-03-08T03:41:17;15.68;;;6.55;;
19207;SDS011;9737;59.466;18.036;2024-03-08T03:43:43;10.95;;;6.20;;
19207;SDS011;9737;59.466;18.036;2024-03-08T03:46:11;13.15;;;7.03;;
19207;SDS011;9737;59.466;18.036;2024-03-08T03:48:40;15.55;;;7.15;;
19207;SDS011;9737;59.466;18.036;2024-03-08T03:51:10;13.73;;;6.63;;
19207;SDS011;9737;59.466;18.036;2024-03-08T03:53:37;15.82;;;6.68;;
19207;SDS011;9737;59.466;18.036;2024-03-08T03:56:06;11.63;;;6.10;;
19207;SDS011;9737;59.466;18.036;2024-03-08T03:58:33;12.85;;;6.93;;
19207;SDS011;9737;59.466;18.036;2024-03-08T04:01:04;14.30;;;6.97;;
19207;SDS011;9737;59.466;18.036;2024-03-08T04:03:32;15.85;;;6.72;;
19207;SDS011;9737;59.466;18.036;2024-03-08T04:06:01;15.73;;;7.10;;
19207;SDS011;9737;59.466;18.036;2024-03-08T04:08:29;11.07;;;6.03;;
19207;SDS011;9737;59.466;18.036;2024-03-08T04:10:57;13.23;;;6.80;;
19207;SDS011;9737;59.466;18.036;2024-03-08T04:13:25;16.00;;;7.35;;
19207;SDS011;9737;59.466;18.036;2024-03-08T04:15:53;10.80;;;6.75;;
19207;SDS011;9737;59.466;18.036;2024-03-08T04:18:22;14.90;;;7.50;;
19207;SDS011;9737;59.466;18.036;2024-03-08T04:20:50;41.67;;;8.23;;
19207;SDS011;9737;59.466;18.036;2024-03-08T04:23:19;23.02;;;8.27;;
19207;SDS011;9737;59.466;18.036;2024-03-08T04:25:47;20.75;;;7.40;;
19207;SDS011;9737;59.466;18.036;2024-03-08T04:28:15;14.95;;;7.60;;
19207;SDS011;9737;59.466;18.036;2024-03-08T04:30:43;40.75;;;8.05;;
19207;SDS011;9737;59.466;18.036;2024-03-08T04:33:12;35.75;;;8.00;;
19207;SDS011;9737;59.466;18.036;2024-03-08T04:35:43;32.85;;;8.25;;
19207;SDS011;9737;59.466;18.036;2024-03-08T04:38:14;20.88;;;7.07;;
19207;SDS011;9737;59.466;18.036;2024-03-08T04:40:43;15.52;;;6.88;;
19207;SDS011;9737;59.466;18.036;2024-03-08T04:43:11;20.13;;;7.38;;
19207;SDS011;9737;59.466;18.036;2024-03-08T04:45:39;16.33;;;7.32;;
19207;SDS011;9737;59.466;18.036;2024-03-08T04:48:09;14.02;;;7.32;;
19207;SDS011;9737;59.466;18.036;2024-03-08T04:50:38;13.15;;;7.53;;
19207;SDS011;9737;59.466;18.036;2024-03-08T04:53:06;15.48;;;7.13;;
19207;SDS011;9737;59.466;18.036;2024-03-08T04:55:35;79.55;;;9.50;;
19207;SDS011;9737;59.466;18.036;2024-03-08T04:58:05;36.30;;;8.82;;
19207;SDS011;9737;59.466;18.036;2024-03-08T05:00:33;50.35;;;8.40;;
19207;SDS011;9737;59.466;18.036;2024-03-08T05:03:01;23.08;;;7.93;;
19207;SDS011;9737;59.466;18.036;2024-03-08T05:05:31;17.02;;;8.88;;
19207;SDS011;9737;59.466;18.036;2024-03-08T05:08:00;16.33;;;8.13;;
19207;SDS011;9737;59.466;18.036;2024-03-08T05:10:29;32.38;;;8.70;;
19207;SDS011;9737;59.466;18.036;2024-03-08T05:12:57;50.25;;;9.43;;
19207;SDS011;9737;59.466;18.036;2024-03-08T05:15:26;60.05;;;9.98;;
19207;SDS011;9737;59.466;18.036;2024-03-08T05:17:54;22.90;;;8.95;;
19207;SDS011;9737;59.466;18.036;2024-03-08T05:20:24;37.13;;;9.30;;
19207;SDS011;9737;59.466;18.036;2024-03-08T05:22:52;40.22;;;8.85;;
19207;SDS011;9737;59.466;18.036;2024-03-08T05:25:20;26.50;;;9.02;;
19207;SDS011;9737;59.466;18.036;2024-03-08T05:27:48;29.67;;;8.40;;
19207;SDS011;9737;59.466;18.036;2024-03-08T05:30:16;23.40;;;8.60;;
19207;SDS011;9737;59.466;18.036;2024-03-08T05:32:45;43.97;;;9.02;;
19207;SDS011;9737;59.466;18.036;2024-03-08T05:35:13;27.77;;;9.02;;
19207;SDS011;9737;59.466;18.036;2024-03-08T05:37:42;18.55;;;8.45;;
19207;SDS011;9737;59.466;18.036;2024-03-08T05:40:11;28.27;;;8.75;;
19207;SDS011;9737;59.466;18.036;2024-03-08T05:42:44;39.90;;;9.05;;
19207;SDS011;9737;59.466;18.036;2024-03-08T05:45:12;57.60;;;10.27;;
19207;SDS011;9737;59.466;18.036;2024-03-08T05:47:41;48.95;;;9.20;;
19207;SDS011;9737;59.466;18.036;2024-03-08T05:50:10;64.10;;;10.77;;
19207;SDS011;9737;59.466;18.036;2024-03-08T05:52:38;63.40;;;9.73;;
19207;SDS011;9737;59.466;18.036;2024-03-08T05:55:06;44.25;;;9.65;;
19207;SDS011;9737;59.466;18.036;2024-03-08T05:57:36;29.85;;;10.05;;
19207;SDS011;9737;59.466;18.036;2024-03-08T06:00:06;21.50;;;10.35;;
19207;SDS011;9737;59.466;18.036;2024-03-08T06:02:36;90.95;;;12.38;;
19207;SDS011;9737;59.466;18.036;2024-03-08T06:05:09;51.17;;;11.77;;
19207;SDS011;9737;59.466;18.036;2024-03-08T06:07:38;131.32;;;15.45;;
19207;SDS011;9737;59.466;18.036;2024-03-08T06:10:08;130.90;;;15.15;;
19207;SDS011;9737;59.466;18.036;2024-03-08T06:12:38;103.78;;;14.15;;
19207;SDS011;9737;59.466;18.036;2024-03-08T06:15:09;35.35;;;11.43;;
19207;SDS011;9737;59.466;18.036;2024-03-08T06:17:41;40.97;;;10.80;;
19207;SDS011;9737;59.466;18.036;2024-03-08T06:20:10;43.15;;;10.05;;
19207;SDS011;9737;59.466;18.036;2024-03-08T06:22:40;100.00;;;13.27;;
19207;SDS011;9737;59.466;18.036;2024-03-08T06:25:08;65.60;;;10.38;;
19207;SDS011;9737;59.466;18.036;2024-03-08T06:27:37;32.03;;;8.93;;
19207;SDS011;9737;59.466;18.036;2024-03-08T06:30:05;41.50;;;9.60;;
19207;SDS011;9737;59.466;18.036;2024-03-08T06:32:36;31.45;;;8.73;;
19207;SDS011;9737;59.466;18.036;2024-03-08T06:35:04;36.00;;;8.73;;
19207;SDS011;9737;59.466;18.036;2024-03-08T06:37:35;51.30;;;9.32;;
19207;SDS011;9737;59.466;18.036;2024-03-08T06:40:03;19.40;;;7.93;;
19207;SDS011;9737;59.466;18.036;2024-03-08T06:42:31;31.67;;;9.20;;
19207;SDS011;9737;59.466;18.036;2024-03-08T06:45:01;40.05;;;8.80;;
19207;SDS011;9737;59.466;18.036;2024-03-08T06:47:31;22.88;;;7.40;;
19207;SDS011;9737;59.466;18.036;2024-03-08T06:50:00;23.88;;;7.50;;
19207;SDS011;9737;59.466;18.036;2024-03-08T06:52:28;23.20;;;7.10;;
19207;SDS011;9737;59.466;18.036;2024-03-08T06:54:57;48.75;;;7.13;;
19207;SDS011;9737;59.466;18.036;2024-03-08T06:57:26;23.30;;;6.93;;
19207;SDS011;9737;59.466;18.036;2024-03-08T06:59:55;16.52;;;6.93;;
19207;SDS011;9737;59.466;18.036;2024-03-08T07:02:23;16.58;;;5.95;;
19207;SDS011;9737;59.466;18.036;2024-03-08T07:04:51;12.48;;;5.82;;
19207;SDS011;9737;59.466;18.036;2024-03-08T07:07:20;38.53;;;6.97;;
19207;SDS011;9737;59.466;18.036;2024-03-08T07:09:48;20.52;;;6.30;;
19207;SDS011;9737;59.466;18.036;2024-03-08T07:12:18;18.98;;;6.50;;
19207;SDS011;9737;59.466;18.036;2024-03-08T07:14:47;16.92;;;6.70;;
19207;SDS011;9737;59.466;18.036;2024-03-08T07:17:15;33.75;;;6.85;;
19207;SDS011;9737;59.466;18.036;2024-03-08T07:19:43;22.50;;;7.57;;
19207;SDS011;9737;59.466;18.036;2024-03-08T07:22:11;27.25;;;7.80;;
19207;SDS011;9737;59.466;18.036;2024-03-08T07:24:39;13.43;;;5.95;;
19207;SDS011;9737;59.466;18.036;2024-03-08T07:27:23;18.55;;;5.82;;
19207;SDS011;9737;59.466;18.036;2024-03-08T07:29:51;11.25;;;5.82;;
19207;SDS011;9737;59.466;18.036;2024-03-08T07:32:34;9.75;;;5.07;;
19207;SDS011;9737;59.466;18.036;2024-03-08T07:35:02;10.95;;;5.03;;
19207;SDS011;9737;59.466;18.036;2024-03-08T07:37:30;21.85;;;5.55;;
19207;SDS011;9737;59.466;18.036;2024-03-08T07:39:58;17.02;;;5.28;;
19207;SDS011;9737;59.466;18.036;2024-03-08T07:42:27;13.32;;;5.75;;
19207;SDS011;9737;59.466;18.036;2024-03-08T07:44:56;12.35;;;5.53;;
19207;SDS011;9737;59.466;18.036;2024-03-08T07:47:23;13.60;;;4.78;;
19207;SDS011;9737;59.466;18.036;2024-03-08T07:49:52;14.15;;;5.22;;
19207;SDS011;9737;59.466;18.036;2024-03-08T07:52:20;8.93;;;4.80;;
19207;SDS011;9737;59.466;18.036;2024-03-08T07:54:48;27.38;;;5.60;;
19207;SDS011;9737;59.466;18.036;2024-03-08T07:57:16;10.73;;;4.60;;
19207;SDS011;9737;59.466;18.036;2024-03-08T07:59:45;10.40;;;5.00;;
19207;SDS011;9737;59.466;18.036;2024-03-08T08:02:13;8.23;;;4.80;;
19207;SDS011;9737;59.466;18.036;2024-03-08T08:04:41;10.05;;;4.47;;
19207;SDS011;9737;59.466;18.036;2024-03-08T08:07:11;11.70;;;4.53;;
19207;SDS011;9737;59.466;18.036;2024-03-08T08:09:38;12.23;;;4.78;;
19207;SDS011;9737;59.466;18.036;2024-03-08T08:12:07;11.95;;;4.25;;
19207;SDS011;9737;59.466;18.036;2024-03-08T08:14:38;7.05;;;4.55;;
19207;SDS011;9737;59.466;18.036;2024-03-08T08:17:07;8.68;;;4.45;;
19207;SDS011;9737;59.466;18.036;2024-03-08T08:19:35;13.48;;;4.45;;
19207;SDS011;9737;59.466;18.036;2024-03-08T08:22:04;25.55;;;4.50;;
19207;SDS011;9737;59.466;18.036;2024-03-08T08:24:35;8.75;;;3.83;;
19207;SDS011;9737;59.466;18.036;2024-03-08T08:27:04;10.43;;;4.13;;
19207;SDS011;9737;59.466;18.036;2024-03-08T08:29:32;8.80;;;3.83;;
19207;SDS011;9737;59.466;18.036;2024-03-08T08:32:00;9.95;;;3.70;;
19207;SDS011;9737;59.466;18.036;2024-03-08T08:34:30;8.07;;;3.75;;
19207;SDS011;9737;59.466;18.036;2024-03-08T08:36:58;8.18;;;3.58;;
19207;SDS011;9737;59.466;18.036;2024-03-08T08:39:27;6.32;;;3.40;;
19207;SDS011;9737;59.466;18.036;2024-03-08T08:41:55;8.18;;;3.60;;
19207;SDS011;9737;59.466;18.036;2024-03-08T08:44:22;7.82;;;3.25;;
19207;SDS011;9737;59.466;18.036;2024-03-08T08:46:51;10.20;;;3.60;;
19207;SDS011;9737;59.466;18.036;2024-03-08T08:49:28;6.40;;;3.38;;
19207;SDS011;9737;59.466;18.036;2024-03-08T08:51:58;4.68;;;3.28;;
19207;SDS011;9737;59.466;18.036;2024-03-08T08:54:37;5.63;;;3.38;;
19207;SDS011;9737;59.466;18.036;2024-03-08T08:57:05;9.45;;;3.65;;
19207;SDS011;9737;59.466;18.036;2024-03-08T08:59:34;7.43;;;3.42;;
19207;SDS011;9737;59.466;18.036;2024-03-08T09:02:02;12.40;;;3.47;;
19207;SDS011;9737;59.466;18.036;2024-03-08T09:04:31;6.07;;;3.28;;
19207;SDS011;9737;59.466;18.036;2024-03-08T09:07:00;5.97;;;3.17;;
19207;SDS011;9737;59.466;18.036;2024-03-08T09:09:28;6.72;;;3.22;;
19207;SDS011;9737;59.466;18.036;2024-03-08T09:11:56;7.03;;;3.65;;
19207;SDS011;9737;59.466;18.036;2024-03-08T09:14:24;7.93;;;3.40;;
19207;SDS011;9737;59.466;18.036;2024-03-08T09:16:53;6.72;;;3.20;;
19207;SDS011;9737;59.466;18.036;2024-03-08T09:19:20;56.28;;;4.15;;
19207;SDS011;9737;59.466;18.036;2024-03-08T09:21:51;18.27;;;4.07;;
19207;SDS011;9737;59.466;18.036;2024-03-08T09:24:20;9.38;;;3.40;;
19207;SDS011;9737;59.466;18.036;2024-03-08T09:26:48;14.48;;;3.60;;
19207;SDS011;9737;59.466;18.036;2024-03-08T09:29:16;5.30;;;3.25;;
19207;SDS011;9737;59.466;18.036;2024-03-08T09:31:43;7.57;;;3.92;;
19207;SDS011;9737;59.466;18.036;2024-03-08T09:34:12;9.27;;;3.00;;
19207;SDS011;9737;59.466;18.036;2024-03-08T09:36:48;15.10;;;3.45;;
19207;SDS011;9737;59.466;18.036;2024-03-08T09:39:18;17.45;;;3.58;;
19207;SDS011;9737;59.466;18.036;2024-03-08T09:41:51;6.47;;;3.17;;
19207;SDS011;9737;59.466;18.036;2024-03-08T09:44:18;5.43;;;3.47;;
19207;SDS011;9737;59.466;18.036;2024-03-08T09:46:46;15.95;;;3.28;;
19207;SDS011;9737;59.466;18.036;2024-03-08T09:49:14;7.72;;;3.30;;
19207;SDS011;9737;59.466;18.036;2024-03-08T09:51:43;5.95;;;2.92;;
19207;SDS011;9737;59.466;18.036;2024-03-08T09:54:12;7.35;;;2.83;;
19207;SDS011;9737;59.466;18.036;2024-03-08T09:56:50;4.80;;;2.95;;
19207;SDS011;9737;59.466;18.036;2024-03-08T09:59:19;7.53;;;3.30;;
19207;SDS011;9737;59.466;18.036;2024-03-08T10:02:12;9.13;;;2.90;;
19207;SDS011;9737;59.466;18.036;2024-03-08T10:04:43;20.80;;;2.92;;
19207;SDS011;9737;59.466;18.036;2024-03-08T10:07:13;7.28;;;2.88;;
19207;SDS011;9737;59.466;18.036;2024-03-08T10:09:41;4.05;;;2.42;;
19207;SDS011;9737;59.466;18.036;2024-03-08T10:12:15;6.82;;;2.50;;
19207;SDS011;9737;59.466;18.036;2024-03-08T10:14:43;10.73;;;2.40;;
19207;SDS011;9737;59.466;18.036;2024-03-08T10:17:12;17.90;;;2.75;;
19207;SDS011;9737;59.466;18.036;2024-03-08T10:19:46;5.05;;;2.55;;
19207;SDS011;9737;59.466;18.036;2024-03-08T10:22:18;131.68;;;5.82;;
19207;SDS011;9737;59.466;18.036;2024-03-08T10:24:46;3.78;;;2.22;;
19207;SDS011;9737;59.466;18.036;2024-03-08T10:27:16;91.38;;;5.53;;
19207;SDS011;9737;59.466;18.036;2024-03-08T10:29:46;7.55;;;2.38;;
19207;SDS011;9737;59.466;18.036;2024-03-08T10:32:14;3.53;;;1.98;;
19207;SDS011;9737;59.466;18.036;2024-03-08T10:34:42;6.68;;;2.33;;
19207;SDS011;9737;59.466;18.036;2024-03-08T10:37:12;3.45;;;1.92;;
19207;SDS011;9737;59.466;18.036;2024-03-08T10:39:46;3.72;;;2.30;;
19207;SDS011;9737;59.466;18.036;2024-03-08T10:42:23;3.22;;;2.08;;
19207;SDS011;9737;59.466;18.036;2024-03-08T10:44:58;4.38;;;2.20;;
19207;SDS011;9737;59.466;18.036;2024-03-08T10:47:34;3.75;;;2.20;;
19207;SDS011;9737;59.466;18.036;2024-03-08T10:50:10;22.63;;;2.90;;
19207;SDS011;9737;59.466;18.036;2024-03-08T10:52:48;8.85;;;2.25;;
19207;SDS011;9737;59.466;18.036;2024-03-08T10:55:18;4.10;;;2.30;;
19207;SDS011;9737;59.466;18.036;2024-03-08T10:57:48;29.10;;;3.30;;
19207;SDS011;9737;59.466;18.036;2024-03-08T11:00:17;6.50;;;2.15;;
19207;SDS011;9737;59.466;18.036;2024-03-08T11:02:53;5.85;;;2.40;;
19207;SDS011;9737;59.466;18.036;2024-03-08T11:05:31;3.90;;;2.10;;
19207;SDS011;9737;59.466;18.036;2024-03-08T11:08:02;8.68;;;2.20;;
19207;SDS011;9737;59.466;18.036;2024-03-08T11:10:31;3.88;;;2.05;;
19207;SDS011;9737;59.466;18.036;2024-03-08T11:13:00;3.38;;;2.20;;
19207;SDS011;9737;59.466;18.036;2024-03-08T11:15:29;4.03;;;2.28;;
19207;SDS011;9737;59.466;18.036;2024-03-08T11:17:58;4.40;;;2.20;;
19207;SDS011;9737;59.466;18.036;2024-03-08T11:20:27;12.45;;;2.90;;
19207;SDS011;9737;59.466;18.036;2024-03-08T11:23:00;9.07;;;2.25;;
19207;SDS011;9737;59.466;18.036;2024-03-08T11:25:30;13.70;;;2.70;;
19207;SDS011;9737;59.466;18.036;2024-03-08T11:28:14;69.05;;;4.43;;
19207;SDS011;9737;59.466;18.036;2024-03-08T11:30:47;3.50;;;2.10;;
19207;SDS011;9737;59.466;18.036;2024-03-08T11:33:50;16.83;;;2.42;;
19207;SDS011;9737;59.466;18.036;2024-03-08T11:36:20;3.30;;;2.20;;
19207;SDS011;9737;59.466;18.036;2024-03-08T11:38:50;5.38;;;2.20;;
19207;SDS011;9737;59.466;18.036;2024-03-08T11:41:22;3.80;;;2.08;;
19207;SDS011;9737;59.466;18.036;2024-03-08T11:44:01;5.13;;;2.38;;
19207;SDS011;9737;59.466;18.036;2024-03-08T11:46:31;6.75;;;2.10;;
19207;SDS011;9737;59.466;18.036;2024-03-08T11:49:00;14.30;;;2.60;;
19207;SDS011;9737;59.466;18.036;2024-03-08T11:51:28;13.85;;;2.30;;
19207;SDS011;9737;59.466;18.036;2024-03-08T11:53:56;8.23;;;2.15;;
19207;SDS011;9737;59.466;18.036;2024-03-08T11:56:24;5.65;;;2.10;;
19207;SDS011;9737;59.466;18.036;2024-03-08T11:58:53;6.95;;;2.20;;
19207;SDS011;9737;59.466;18.036;2024-03-08T12:01:25;6.78;;;2.25;;
19207;SDS011;9737;59.466;18.036;2024-03-08T12:03:54;6.80;;;2.10;;
19207;SDS011;9737;59.466;18.036;2024-03-08T12:06:25;7.68;;;2.15;;
19207;SDS011;9737;59.466;18.036;2024-03-08T12:08:53;84.03;;;5.68;;
19207;SDS011;9737;59.466;18.036;2024-03-08T12:11:21;8.77;;;2.20;;
19207;SDS011;9737;59.466;18.036;2024-03-08T12:13:51;6.25;;;2.20;;
19207;SDS011;9737;59.466;18.036;2024-03-08T12:16:20;4.22;;;2.00;;
19207;SDS011;9737;59.466;18.036;2024-03-08T12:18:50;233.75;;;11.20;;
19207;SDS011;9737;59.466;18.036;2024-03-08T12:21:20;7.47;;;1.98;;
19207;SDS011;9737;59.466;18.036;2024-03-08T12:24:01;14.65;;;2.35;;
19207;SDS011;9737;59.466;18.036;2024-03-08T12:26:30;46.03;;;3.83;;
19207;SDS011;9737;59.466;18.036;2024-03-08T12:29:14;5.30;;;2.00;;
19207;SDS011;9737;59.466;18.036;2024-03-08T12:31:44;9.55;;;2.35;;
19207;SDS011;9737;59.466;18.036;2024-03-08T12:34:14;10.30;;;2.67;;
19207;SDS011;9737;59.466;18.036;2024-03-08T12:36:45;7.57;;;2.35;;
19207;SDS011;9737;59.466;18.036;2024-03-08T12:39:18;15.93;;;3.10;;
19207;SDS011;9737;59.466;18.036;2024-03-08T12:41:49;9.75;;;3.35;;
19207;SDS011;9737;59.466;18.036;2024-03-08T12:44:18;3.03;;;1.92;;
19207;SDS011;9737;59.466;18.036;2024-03-08T12:46:48;3.65;;;2.08;;
19207;SDS011;9737;59.466;18.036;2024-03-08T12:49:20;9.60;;;2.40;;
19207;SDS011;9737;59.466;18.036;2024-03-08T12:51:49;4.50;;;1.92;;
19207;SDS011;9737;59.466;18.036;2024-03-08T12:54:19;3.65;;;2.10;;
19207;SDS011;9737;59.466;18.036;2024-03-08T12:56:49;6.13;;;2.20;;
19207;SDS011;9737;59.466;18.036;2024-03-08T12:59:19;4.68;;;2.25;;
19207;SDS011;9737;59.466;18.036;2024-03-08T13:01:48;9.40;;;2.30;;
19207;SDS011;9737;59.466;18.036;2024-03-08T13:04:17;8.27;;;2.30;;
19207;SDS011;9737;59.466;18.036;2024-03-08T13:06:49;10.80;;;2.50;;
19207;SDS011;9737;59.466;18.036;2024-03-08T13:09:20;61.80;;;4.57;;
19207;SDS011;9737;59.466;18.036;2024-03-08T13:11:50;9.30;;;2.08;;
19207;SDS011;9737;59.466;18.036;2024-03-08T13:14:18;35.42;;;2.80;;
19207;SDS011;9737;59.466;18.036;2024-03-08T13:16:46;8.70;;;2.00;;
19207;SDS011;9737;59.466;18.036;2024-03-08T13:19:15;4.68;;;2.00;;
19207;SDS011;9737;59.466;18.036;2024-03-08T13:21:43;21.25;;;2.75;;
19207;SDS011;9737;59.466;18.036;2024-03-08T13:24:17;28.50;;;2.97;;
19207;SDS011;9737;59.466;18.036;2024-03-08T13:26:45;43.85;;;3.17;;
19207;SDS011;9737;59.466;18.036;2024-03-08T13:29:14;3.97;;;2.10;;
19207;SDS011;9737;59.466;18.036;2024-03-08T13:31:45;13.70;;;2.10;;
19207;SDS011;9737;59.466;18.036;2024-03-08T13:34:13;23.83;;;3.35;;
19207;SDS011;9737;59.466;18.036;2024-03-08T13:36:42;18.88;;;2.45;;
19207;SDS011;9737;59.466;18.036;2024-03-08T13:39:11;4.43;;;2.10;;
19207;SDS011;9737;59.466;18.036;2024-03-08T13:41:43;86.25;;;5.45;;
19207;SDS011;9737;59.466;18.036;2024-03-08T13:44:12;64.72;;;4.65;;
19207;SDS011;9737;59.466;18.036;2024-03-08T13:46:39;73.22;;;4.70;;
19207;SDS011;9737;59.466;18.036;2024-03-08T13:49:08;3.95;;;1.98;;
19207;SDS011;9737;59.466;18.036;2024-03-08T13:51:37;46.13;;;4.45;;
19207;SDS011;9737;59.466;18.036;2024-03-08T13:54:05;10.55;;;2.30;;
19207;SDS011;9737;59.466;18.036;2024-03-08T13:56:33;7.50;;;2.40;;
19207;SDS011;9737;59.466;18.036;2024-03-08T13:59:03;8.23;;;2.72;;
19207;SDS011;9737;59.466;18.036;2024-03-08T14:01:30;18.85;;;2.78;;
19207;SDS011;9737;59.466;18.036;2024-03-08T14:03:58;7.22;;;2.40;;
19207;SDS011;9737;59.466;18.036;2024-03-08T14:06:26;15.77;;;3.13;;
19207;SDS011;9737;59.466;18.036;2024-03-08T14:08:54;91.32;;;5.70;;
19207;SDS011;9737;59.466;18.036;2024-03-08T14:11:23;5.88;;;2.00;;
19207;SDS011;9737;59.466;18.036;2024-03-08T14:13:51;3.63;;;2.30;;
19207;SDS011;9737;59.466;18.036;2024-03-08T14:16:21;4.32;;;2.30;;
19207;SDS011;9737;59.466;18.036;2024-03-08T14:18:49;3.03;;;2.08;;
19207;SDS011;9737;59.466;18.036;2024-03-08T14:21:17;10.13;;;2.55;;
19207;SDS011;9737;59.466;18.036;2024-03-08T14:23:45;5.72;;;2.30;;
19207;SDS011;9737;59.466;18.036;2024-03-08T14:26:14;8.77;;;2.28;;
19207;SDS011;9737;59.466;18.036;2024-03-08T14:28:42;6.10;;;2.42;;
19207;SDS011;9737;59.466;18.036;2024-03-08T14:31:11;7.05;;;2.45;;
19207;SDS011;9737;59.466;18.036;2024-03-08T14:33:40;13.38;;;2.65;;
19207;SDS011;9737;59.466;18.036;2024-03-08T14:36:09;6.68;;;2.38;;
19207;SDS011;9737;59.466;18.036;2024-03-08T14:38:40;5.65;;;2.50;;
19207;SDS011;9737;59.466;18.036;2024-03-08T14:41:07;5.32;;;2.35;;
19207;SDS011;9737;59.466;18.036;2024-03-08T14:43:35;31.20;;;3.72;;
19207;SDS011;9737;59.466;18.036;2024-03-08T14:46:03;14.50;;;3.30;;
19207;SDS011;9737;59.466;18.036;2024-03-08T14:48:32;39.13;;;3.10;;
19207;SDS011;9737;59.466;18.036;2024-03-08T14:51:04;8.50;;;2.63;;